createdAt,value
2018-11-21T00:04:19.405Z,2.97
2018-11-21T00:09:21.331Z,2.95
2018-11-21T00:14:23.488Z,2.82
2018-11-21T00:19:26.576Z,2.81
2018-11-21T00:24:45.975Z,2.75
2018-11-21T00:29:57.908Z,2.76
2018-11-21T00:34:59.961Z,2.65
2018-11-21T00:40:02.048Z,2.62
2018-11-21T00:45:05.128Z,2.54
2018-11-21T00:50:07.351Z,2.63
2018-11-21T00:55:09.506Z,2.65
2018-11-21T01:00:12.112Z,2.61
2018-11-21T01:05:17.150Z,2.42
2018-11-21T01:10:22.989Z,2.47
2018-11-21T01:15:24.857Z,2.45
2018-11-21T01:20:26.779Z,2.44
2018-11-21T01:25:28.776Z,2.42
2018-11-21T01:30:30.629Z,2.33
2018-11-21T01:35:32.554Z,2.32
2018-11-21T01:40:34.580Z,2.29
2018-11-21T01:45:36.587Z,2.23
2018-11-21T01:50:38.924Z,2.24
2018-11-21T01:55:40.978Z,2.14
2018-11-21T02:00:43.068Z,2.16
2018-11-21T02:05:45.005Z,2.13
2018-11-21T02:10:46.951Z,2.07
2018-11-21T02:15:48.998Z,1.99
2018-11-21T02:20:52.357Z,1.94
2018-11-21T02:25:54.262Z,1.95
2018-11-21T02:30:56.434Z,1.89
2018-11-21T02:35:58.394Z,1.87
2018-11-21T02:41:00.373Z,1.81
2018-11-21T02:46:02.251Z,1.77
2018-11-21T02:51:04.410Z,1.73
2018-11-21T02:56:06.377Z,1.71
2018-11-21T03:01:08.360Z,1.61
2018-11-21T03:06:10.301Z,1.63
2018-11-21T03:11:12.297Z,1.70
2018-11-21T03:16:14.251Z,1.69
2018-11-21T03:21:16.257Z,1.69
2018-11-21T03:26:18.215Z,1.61
2018-11-21T03:31:20.149Z,1.56
2018-11-21T03:36:22.075Z,1.55
2018-11-21T03:41:25.182Z,1.45
2018-11-21T03:46:30.613Z,1.45
2018-11-21T03:51:32.586Z,1.20
2018-11-21T03:56:34.928Z,1.10
2018-11-21T04:01:37.252Z,1.13
2018-11-21T04:06:39.123Z,1.09
2018-11-21T04:11:41.062Z,1.15
2018-11-21T04:16:42.977Z,1.02
2018-11-21T04:21:44.938Z,0.91
2018-11-21T04:26:47.084Z,0.87
2018-11-21T04:31:49.268Z,1.01
2018-11-21T04:36:51.142Z,1.06
2018-11-21T04:41:53.416Z,1.13
2018-11-21T04:46:55.333Z,1.07
2018-11-21T04:51:57.604Z,1.16
2018-11-21T04:56:59.539Z,1.20
2018-11-21T05:02:01.398Z,1.23
2018-11-21T05:07:03.436Z,1.12
2018-11-21T05:12:05.695Z,1.14
2018-11-21T05:17:07.555Z,1.08
2018-11-21T05:22:09.679Z,1.07
2018-11-21T05:27:11.567Z,1.13
2018-11-21T05:32:13.471Z,1.15
2018-11-21T05:37:15.454Z,1.27
2018-11-21T05:42:17.406Z,1.34
2018-11-21T05:47:19.353Z,1.42
2018-11-21T05:52:21.266Z,1.45
2018-11-21T05:57:23.217Z,1.48
2018-11-21T06:02:25.114Z,1.58
2018-11-21T06:07:26.993Z,1.70
2018-11-21T06:12:28.965Z,1.70
2018-11-21T06:17:30.928Z,1.68
2018-11-21T06:22:32.895Z,1.67
2018-11-21T06:27:34.868Z,1.76
2018-11-21T06:32:36.772Z,1.72
2018-11-21T06:37:39.206Z,1.75
2018-11-21T06:42:51.529Z,1.72
2018-11-21T06:47:53.526Z,1.76
2018-11-21T06:52:56.614Z,1.70
2018-11-21T06:57:58.536Z,1.54
2018-11-21T07:03:00.472Z,1.71
2018-11-21T07:08:02.432Z,1.67
2018-11-21T07:13:10.990Z,1.72
2018-11-21T07:18:08.393Z,1.70
2018-11-21T07:23:10.347Z,1.81
2018-11-21T07:28:13.054Z,1.80
2018-11-21T07:33:14.251Z,1.87
2018-11-21T07:38:16.916Z,1.97
2018-11-21T07:43:18.886Z,2.02
2018-11-21T07:48:20.937Z,1.98
2018-11-21T07:53:22.863Z,2.06
2018-11-21T07:58:25.690Z,2.03
2018-11-21T08:03:35.532Z,2.17
2018-11-21T08:09:12.347Z,2.22
2018-11-21T08:14:33.897Z,2.41
2018-11-21T08:19:55.361Z,2.52
2018-11-21T08:25:17.095Z,2.39
2018-11-21T08:30:19.017Z,2.40
2018-11-21T08:35:21.292Z,2.41
2018-11-21T08:40:23.263Z,2.49
2018-11-21T08:45:25.405Z,2.54
2018-11-21T08:50:27.476Z,2.67
2018-11-21T08:55:29.305Z,2.64
2018-11-21T09:00:31.304Z,2.61
2018-11-21T09:05:33.274Z,2.80
2018-11-21T09:15:36.847Z,2.77
2018-11-21T09:20:38.834Z,2.74
2018-11-21T09:25:40.733Z,2.81
2018-11-21T09:30:42.642Z,2.82
2018-11-21T09:35:44.800Z,2.93
2018-11-21T09:40:46.723Z,3.01
2018-11-21T09:45:48.687Z,3.02
2018-11-21T09:50:51.069Z,3.04
2018-11-21T09:55:53.031Z,3.15
2018-11-21T10:01:31.549Z,3.19
2018-11-21T10:06:36.134Z,3.22
2018-11-21T10:11:38.125Z,3.28
2018-11-21T10:16:40.049Z,3.28
2018-11-21T10:21:42.562Z,3.31
2018-11-21T10:26:44.623Z,3.48
2018-11-21T10:31:46.984Z,3.57
2018-11-21T10:36:49.096Z,3.41
2018-11-21T10:41:50.956Z,3.38
2018-11-21T10:46:53.207Z,3.42
2018-11-21T10:51:55.259Z,3.51
2018-11-21T10:56:57.339Z,3.54
2018-11-21T11:02:17.840Z,3.55
2018-11-21T11:07:39.635Z,3.64
2018-11-21T11:13:03.238Z,3.64
2018-11-21T11:18:21.039Z,3.75
2018-11-21T11:24:00.856Z,3.60
2018-11-21T11:29:25.440Z,3.80
2018-11-21T11:34:46.951Z,3.86
2018-11-21T11:40:11.415Z,3.93
2018-11-21T11:45:31.687Z,3.96
2018-11-21T11:50:56.008Z,3.97
2018-11-21T11:56:16.248Z,4.00
2018-11-21T12:01:36.336Z,3.93
2018-11-21T12:07:04.021Z,4.09
2018-11-21T12:12:40.517Z,4.11
2018-11-21T12:18:08.051Z,4.09
2018-11-21T12:23:32.162Z,4.09
2018-11-21T12:29:02.680Z,4.05
2018-11-21T12:34:30.358Z,3.98
2018-11-21T12:39:40.278Z,4.04
2018-11-21T12:45:00.232Z,4.06
2018-11-21T12:50:33.957Z,4.05
2018-11-21T12:56:01.159Z,4.03
2018-11-21T13:01:11.745Z,4.03
2018-11-21T13:06:27.660Z,4.04
2018-11-21T13:11:48.031Z,4.07
2018-11-21T13:17:12.806Z,4.10
2018-11-21T13:22:32.690Z,3.98
2018-11-21T13:27:54.244Z,3.94
2018-11-21T13:33:18.411Z,4.00
2018-11-21T13:38:42.926Z,4.05
2018-11-21T13:43:59.117Z,4.03
2018-11-21T13:49:23.496Z,3.96
2018-11-21T13:54:48.276Z,3.92
2018-11-21T13:59:50.392Z,3.97
2018-11-21T14:04:52.342Z,3.96
2018-11-21T14:09:54.306Z,4.00
2018-11-21T14:14:56.597Z,4.04
2018-11-21T14:19:58.662Z,3.94
2018-11-21T14:25:00.725Z,3.97
2018-11-21T14:30:03.430Z,4.00
2018-11-21T14:35:08.451Z,4.01
2018-11-21T14:40:12.458Z,3.99
2018-11-21T14:45:16.595Z,4.01
2018-11-21T14:50:23.424Z,3.97
2018-11-21T14:55:25.518Z,3.92
2018-11-21T15:00:27.455Z,3.97
2018-11-21T15:05:29.389Z,3.96
2018-11-21T15:10:34.489Z,3.94
2018-11-21T15:15:37.588Z,3.88
2018-11-21T15:20:39.884Z,3.85
2018-11-21T15:25:42.874Z,3.86
2018-11-21T15:30:46.019Z,3.81
2018-11-21T15:35:48.131Z,3.90
2018-11-21T15:40:50.484Z,3.83
2018-11-21T15:45:55.106Z,3.79
2018-11-21T15:50:58.887Z,3.76
2018-11-21T15:56:01.656Z,3.73
2018-11-21T16:01:04.482Z,3.73
2018-11-21T16:06:07.805Z,3.73
2018-11-21T16:11:10.723Z,3.67
2018-11-21T16:16:13.001Z,3.64
2018-11-21T16:21:16.125Z,3.63
2018-11-21T16:26:19.733Z,3.66
2018-11-21T16:31:21.655Z,3.64
2018-11-21T16:36:27.213Z,3.62
2018-11-21T16:41:25.879Z,3.67
2018-11-21T16:46:27.807Z,3.63
2018-11-21T16:51:29.787Z,3.66
2018-11-21T16:56:31.915Z,3.66
2018-11-21T17:01:34.320Z,3.65
2018-11-21T17:06:36.323Z,3.66
2018-11-21T17:11:38.253Z,3.63
2018-11-21T17:16:40.210Z,3.64
2018-11-21T17:21:42.585Z,3.63
2018-11-21T17:26:44.620Z,3.59
2018-11-21T17:31:46.752Z,3.56
2018-11-21T17:36:50.284Z,3.55
2018-11-21T17:41:52.283Z,3.54
2018-11-21T17:46:54.340Z,3.56
2018-11-21T17:57:06.442Z,3.57
2018-11-21T18:02:09.341Z,3.58
2018-11-21T18:07:11.388Z,3.63
2018-11-21T18:12:13.305Z,3.56
2018-11-21T18:17:15.803Z,3.57
2018-11-21T18:22:18.062Z,3.56
2018-11-21T18:27:20.153Z,3.58
2018-11-21T18:32:22.220Z,3.56
2018-11-21T18:37:24.127Z,3.57
2018-11-21T18:42:26.122Z,3.53
2018-11-21T18:47:28.178Z,3.59
2018-11-21T18:52:30.216Z,3.51
2018-11-21T18:57:54.430Z,3.59
2018-11-21T19:02:56.398Z,3.57
2018-11-21T19:07:58.418Z,3.61
2018-11-21T19:13:00.310Z,3.63
2018-11-21T19:18:02.257Z,3.63
2018-11-21T19:23:04.861Z,3.67
2018-11-21T19:28:07.140Z,3.57
2018-11-21T19:33:09.513Z,3.67
2018-11-21T19:38:11.750Z,3.69
2018-11-21T19:43:13.814Z,3.62
2018-11-21T19:48:15.887Z,3.61
2018-11-21T19:53:17.879Z,3.61
2018-11-21T19:58:20.187Z,3.68
2018-11-21T20:03:22.226Z,3.60
2018-11-21T20:08:24.853Z,3.57
2018-11-21T20:13:26.875Z,3.59
2018-11-21T20:18:28.909Z,3.61
2018-11-21T20:23:30.834Z,3.64
2018-11-21T20:28:49.527Z,3.63
2018-11-21T20:33:51.819Z,3.58
2018-11-21T20:38:53.874Z,3.59
2018-11-21T20:43:57.366Z,3.63
2018-11-21T20:49:11.445Z,3.59
2018-11-21T20:54:12.909Z,3.57
2018-11-21T20:59:15.353Z,3.56
2018-11-21T21:04:17.329Z,3.59
2018-11-21T21:09:19.792Z,3.61
2018-11-21T21:14:23.021Z,3.56
2018-11-21T21:19:26.216Z,3.57
2018-11-21T21:24:29.224Z,3.56
2018-11-21T21:29:31.808Z,3.53
2018-11-21T21:34:34.628Z,3.57
